sensor_id;sensor_type;location;lat;lon;timestamp;P1;durP1;ratioP1;P2;durP2;ratioP2
6941;SDS011;3510;43.200;27.920;2023-08-01T00:00:26;18.45;;;15.07;;
6941;SDS011;3510;43.200;27.920;2023-08-01T00:02:55;19.20;;;17.35;;
6941;SDS011;3510;43.200;27.920;2023-08-01T00:05:24;20.63;;;18.70;;
6941;SDS011;3510;43.200;27.920;2023-08-01T00:07:53;20.63;;;18.60;;
6941;SDS011;3510;43.200;27.920;2023-08-01T00:10:21;22.30;;;20.00;;
6941;SDS011;3510;43.200;27.920;2023-08-01T00:12:50;22.38;;;19.98;;
6941;SDS011;3510;43.200;27.920;2023-08-01T00:15:31;19.70;;;17.80;;
6941;SDS011;3510;43.200;27.920;2023-08-01T00:18:01;18.77;;;17.03;;
6941;SDS011;3510;43.200;27.920;2023-08-01T00:20:34;18.25;;;16.45;;
6941;SDS011;3510;43.200;27.920;2023-08-01T00:23:01;17.48;;;15.18;;
6941;SDS011;3510;43.200;27.920;2023-08-01T00:25:27;16.48;;;14.77;;
6941;SDS011;3510;43.200;27.920;2023-08-01T00:27:54;16.35;;;14.30;;
6941;SDS011;3510;43.200;27.920;2023-08-01T00:30:21;14.05;;;12.75;;
6941;SDS011;3510;43.200;27.920;2023-08-01T00:32:47;12.65;;;11.55;;
6941;SDS011;3510;43.200;27.920;2023-08-01T00:35:26;10.23;;;9.30;;
6941;SDS011;3510;43.200;27.920;2023-08-01T00:37:59;10.35;;;9.40;;
6941;SDS011;3510;43.200;27.920;2023-08-01T00:40:29;10.70;;;9.80;;
6941;SDS011;3510;43.200;27.920;2023-08-01T00:43:00;13.47;;;12.20;;
6941;SDS011;3510;43.200;27.920;2023-08-01T00:45:36;15.82;;;14.23;;
6941;SDS011;3510;43.200;27.920;2023-08-01T00:48:03;21.17;;;18.98;;
6941;SDS011;3510;43.200;27.920;2023-08-01T00:50:30;27.25;;;22.40;;
6941;SDS011;3510;43.200;27.920;2023-08-01T00:53:02;26.42;;;22.35;;
6941;SDS011;3510;43.200;27.920;2023-08-01T00:55:29;29.77;;;21.58;;
6941;SDS011;3510;43.200;27.920;2023-08-01T00:57:58;25.27;;;22.57;;
6941;SDS011;3510;43.200;27.920;2023-08-01T01:00:25;29.77;;;23.57;;
6941;SDS011;3510;43.200;27.920;2023-08-01T01:02:52;31.70;;;23.60;;
6941;SDS011;3510;43.200;27.920;2023-08-01T01:05:19;28.55;;;21.35;;
6941;SDS011;3510;43.200;27.920;2023-08-01T01:36:07;10.88;;;10.07;;
6941;SDS011;3510;43.200;27.920;2023-08-01T01:38:33;9.88;;;9.07;;
6941;SDS011;3510;43.200;27.920;2023-08-01T01:41:00;9.98;;;9.18;;
6941;SDS011;3510;43.200;27.920;2023-08-01T01:43:27;9.50;;;8.70;;
6941;SDS011;3510;43.200;27.920;2023-08-01T01:45:54;9.77;;;9.17;;
6941;SDS011;3510;43.200;27.920;2023-08-01T01:48:34;10.05;;;9.38;;
6941;SDS011;3510;43.200;27.920;2023-08-01T01:51:02;11.68;;;10.82;;
6941;SDS011;3510;43.200;27.920;2023-08-01T01:53:29;12.68;;;11.68;;
6941;SDS011;3510;43.200;27.920;2023-08-01T01:55:55;11.15;;;10.45;;
6941;SDS011;3510;43.200;27.920;2023-08-01T01:58:23;10.25;;;9.45;;
6941;SDS011;3510;43.200;27.920;2023-08-01T02:00:50;10.03;;;9.30;;
6941;SDS011;3510;43.200;27.920;2023-08-01T02:03:30;9.10;;;8.60;;
6941;SDS011;3510;43.200;27.920;2023-08-01T02:31:18;8.15;;;7.15;;
6941;SDS011;3510;43.200;27.920;2023-08-01T02:33:59;7.50;;;7.10;;
6941;SDS011;3510;43.200;27.920;2023-08-01T02:36:25;7.88;;;7.40;;
6941;SDS011;3510;43.200;27.920;2023-08-01T02:39:06;6.93;;;6.63;;
6941;SDS011;3510;43.200;27.920;2023-08-01T02:41:47;6.95;;;6.45;;
6941;SDS011;3510;43.200;27.920;2023-08-01T02:50:49;7.28;;;6.78;;
6941;SDS011;3510;43.200;27.920;2023-08-01T02:53:15;6.65;;;6.25;;
6941;SDS011;3510;43.200;27.920;2023-08-01T02:55:43;7.20;;;6.60;;
6941;SDS011;3510;43.200;27.920;2023-08-01T02:58:11;7.00;;;6.60;;
6941;SDS011;3510;43.200;27.920;2023-08-01T03:00:38;10.70;;;9.85;;
6941;SDS011;3510;43.200;27.920;2023-08-01T03:03:19;16.42;;;14.93;;
6941;SDS011;3510;43.200;27.920;2023-08-01T03:05:46;18.02;;;16.23;;
6941;SDS011;3510;43.200;27.920;2023-08-01T03:08:16;17.42;;;15.60;;
6941;SDS011;3510;43.200;27.920;2023-08-01T03:10:44;22.30;;;20.10;;
6941;SDS011;3510;43.200;27.920;2023-08-01T03:13:14;28.42;;;22.52;;
6941;SDS011;3510;43.200;27.920;2023-08-01T03:15:41;26.77;;;23.13;;
6941;SDS011;3510;43.200;27.920;2023-08-01T03:18:21;23.27;;;20.80;;
6941;SDS011;3510;43.200;27.920;2023-08-01T03:20:49;23.90;;;20.63;;
6941;SDS011;3510;43.200;27.920;2023-08-01T03:23:16;23.75;;;21.05;;
6941;SDS011;3510;43.200;27.920;2023-08-01T03:25:43;26.15;;;23.27;;
6941;SDS011;3510;43.200;27.920;2023-08-01T03:28:10;27.75;;;23.33;;
6941;SDS011;3510;43.200;27.920;2023-08-01T03:30:50;25.13;;;22.42;;
6941;SDS011;3510;43.200;27.920;2023-08-01T03:33:32;25.77;;;22.70;;
6941;SDS011;3510;43.200;27.920;2023-08-01T03:39:24;22.95;;;20.58;;
6941;SDS011;3510;43.200;27.920;2023-08-01T03:41:51;30.50;;;24.38;;
6941;SDS011;3510;43.200;27.920;2023-08-01T03:44:32;34.03;;;28.27;;
6941;SDS011;3510;43.200;27.920;2023-08-01T03:47:13;36.40;;;31.00;;
6941;SDS011;3510;43.200;27.920;2023-08-01T03:49:53;40.27;;;33.03;;
6941;SDS011;3510;43.200;27.920;2023-08-01T03:52:20;40.50;;;32.55;;
6941;SDS011;3510;43.200;27.920;2023-08-01T04:07:25;31.17;;;26.60;;
6941;SDS011;3510;43.200;27.920;2023-08-01T04:10:06;29.67;;;25.42;;
6941;SDS011;3510;43.200;27.920;2023-08-01T04:12:34;26.08;;;23.30;;
6941;SDS011;3510;43.200;27.920;2023-08-01T04:15:01;20.88;;;18.85;;
6941;SDS011;3510;43.200;27.920;2023-08-01T04:17:27;22.85;;;20.02;;
6941;SDS011;3510;43.200;27.920;2023-08-01T04:20:10;19.52;;;17.60;;
6941;SDS011;3510;43.200;27.920;2023-08-01T04:22:39;18.25;;;16.52;;
6941;SDS011;3510;43.200;27.920;2023-08-01T04:25:08;21.67;;;17.70;;
6941;SDS011;3510;43.200;27.920;2023-08-01T04:27:37;21.17;;;19.05;;
6941;SDS011;3510;43.200;27.920;2023-08-01T04:30:04;19.27;;;17.45;;
6941;SDS011;3510;43.200;27.920;2023-08-01T04:32:38;18.27;;;16.43;;
6941;SDS011;3510;43.200;27.920;2023-08-01T04:35:06;17.13;;;15.43;;
6941;SDS011;3510;43.200;27.920;2023-08-01T04:37:36;16.73;;;15.15;;
6941;SDS011;3510;43.200;27.920;2023-08-01T04:40:04;14.10;;;12.83;;
6941;SDS011;3510;43.200;27.920;2023-08-01T04:42:34;14.05;;;12.80;;
6941;SDS011;3510;43.200;27.920;2023-08-01T04:45:01;11.00;;;10.00;;
6941;SDS011;3510;43.200;27.920;2023-08-01T04:47:42;11.18;;;10.25;;
6941;SDS011;3510;43.200;27.920;2023-08-01T04:50:09;11.38;;;10.48;;
6941;SDS011;3510;43.200;27.920;2023-08-01T04:52:38;14.00;;;12.77;;
6941;SDS011;3510;43.200;27.920;2023-08-01T04:55:07;32.88;;;29.58;;
6941;SDS011;3510;43.200;27.920;2023-08-01T04:57:39;28.50;;;25.50;;
6941;SDS011;3510;43.200;27.920;2023-08-01T05:00:10;30.17;;;24.95;;
6941;SDS011;3510;43.200;27.920;2023-08-01T05:02:39;34.92;;;24.20;;
6941;SDS011;3510;43.200;27.920;2023-08-01T05:05:07;29.73;;;22.50;;
6941;SDS011;3510;43.200;27.920;2023-08-01T05:07:34;35.20;;;24.33;;
6941;SDS011;3510;43.200;27.920;2023-08-01T05:10:04;26.90;;;22.13;;
6941;SDS011;3510;43.200;27.920;2023-08-01T05:12:32;30.23;;;24.20;;
6941;SDS011;3510;43.200;27.920;2023-08-01T05:14:59;29.17;;;23.33;;
6941;SDS011;3510;43.200;27.920;2023-08-01T05:17:26;33.42;;;25.27;;
6941;SDS011;3510;43.200;27.920;2023-08-01T05:19:53;27.98;;;22.15;;
6941;SDS011;3510;43.200;27.920;2023-08-01T05:22:20;27.25;;;22.35;;
6941;SDS011;3510;43.200;27.920;2023-08-01T05:24:48;27.30;;;21.60;;
6941;SDS011;3510;43.200;27.920;2023-08-01T05:27:18;23.38;;;20.60;;
6941;SDS011;3510;43.200;27.920;2023-08-01T05:29:58;24.40;;;20.90;;
6941;SDS011;3510;43.200;27.920;2023-08-01T05:32:25;27.33;;;23.40;;
6941;SDS011;3510;43.200;27.920;2023-08-01T05:34:56;25.77;;;22.75;;
6941;SDS011;3510;43.200;27.920;2023-08-01T05:37:23;26.23;;;22.60;;
6941;SDS011;3510;43.200;27.920;2023-08-01T05:39:51;29.33;;;25.97;;
6941;SDS011;3510;43.200;27.920;2023-08-01T05:42:21;33.88;;;27.85;;
6941;SDS011;3510;43.200;27.920;2023-08-01T05:45:02;32.63;;;27.50;;
6941;SDS011;3510;43.200;27.920;2023-08-01T05:47:43;32.53;;;25.95;;
6941;SDS011;3510;43.200;27.920;2023-08-01T05:50:11;28.95;;;25.90;;
6941;SDS011;3510;43.200;27.920;2023-08-01T05:52:51;29.05;;;25.88;;
6941;SDS011;3510;43.200;27.920;2023-08-01T05:55:18;23.85;;;21.42;;
6941;SDS011;3510;43.200;27.920;2023-08-01T05:57:48;26.52;;;22.25;;
6941;SDS011;3510;43.200;27.920;2023-08-01T06:00:25;22.60;;;20.20;;
6941;SDS011;3510;43.200;27.920;2023-08-01T06:02:52;20.60;;;18.30;;
6941;SDS011;3510;43.200;27.920;2023-08-01T06:05:32;17.60;;;16.00;;
6941;SDS011;3510;43.200;27.920;2023-08-01T06:08:00;15.10;;;13.68;;
6941;SDS011;3510;43.200;27.920;2023-08-01T06:10:27;12.13;;;10.93;;
6941;SDS011;3510;43.200;27.920;2023-08-01T06:12:55;10.82;;;9.82;;
6941;SDS011;3510;43.200;27.920;2023-08-01T06:15:36;10.32;;;9.40;;
6941;SDS011;3510;43.200;27.920;2023-08-01T06:18:07;7.22;;;6.80;;
6941;SDS011;3510;43.200;27.920;2023-08-01T06:20:36;9.95;;;9.15;;
6941;SDS011;3510;43.200;27.920;2023-08-01T06:23:02;10.00;;;9.10;;
6941;SDS011;3510;43.200;27.920;2023-08-01T06:25:37;9.80;;;8.80;;
6941;SDS011;3510;43.200;27.920;2023-08-01T06:28:08;9.03;;;7.50;;
6941;SDS011;3510;43.200;27.920;2023-08-01T06:30:36;7.30;;;6.70;;
6941;SDS011;3510;43.200;27.920;2023-08-01T06:33:05;5.85;;;5.35;;
6941;SDS011;3510;43.200;27.920;2023-08-01T06:35:32;5.93;;;5.47;;
6941;SDS011;3510;43.200;27.920;2023-08-01T06:37:58;6.90;;;6.25;;
6941;SDS011;3510;43.200;27.920;2023-08-01T06:40:25;6.68;;;6.15;;
6941;SDS011;3510;43.200;27.920;2023-08-01T06:42:52;6.80;;;6.20;;
6941;SDS011;3510;43.200;27.920;2023-08-01T06:45:20;6.95;;;6.47;;
6941;SDS011;3510;43.200;27.920;2023-08-01T06:47:47;7.32;;;6.63;;
6941;SDS011;3510;43.200;27.920;2023-08-01T06:50:28;6.10;;;5.68;;
6941;SDS011;3510;43.200;27.920;2023-08-01T06:52:55;6.32;;;5.72;;
6941;SDS011;3510;43.200;27.920;2023-08-01T06:55:22;6.57;;;6.10;;
6941;SDS011;3510;43.200;27.920;2023-08-01T06:57:48;6.80;;;5.40;;
6941;SDS011;3510;43.200;27.920;2023-08-01T07:00:16;5.60;;;5.10;;
6941;SDS011;3510;43.200;27.920;2023-08-01T07:02:44;4.35;;;4.07;;
6941;SDS011;3510;43.200;27.920;2023-08-01T07:16:08;6.40;;;4.60;;
6941;SDS011;3510;43.200;27.920;2023-08-01T07:18:36;6.32;;;3.95;;
6941;SDS011;3510;43.200;27.920;2023-08-01T07:21:02;4.70;;;4.30;;
6941;SDS011;3510;43.200;27.920;2023-08-01T07:23:30;4.07;;;3.72;;
6941;SDS011;3510;43.200;27.920;2023-08-01T07:25:59;4.30;;;4.00;;
6941;SDS011;3510;43.200;27.920;2023-08-01T07:28:26;4.25;;;3.83;;
6941;SDS011;3510;43.200;27.920;2023-08-01T07:30:58;4.78;;;4.10;;
6941;SDS011;3510;43.200;27.920;2023-08-01T07:33:27;3.75;;;3.55;;
6941;SDS011;3510;43.200;27.920;2023-08-01T07:36:08;4.22;;;3.92;;
6941;SDS011;3510;43.200;27.920;2023-08-01T07:38:35;2.90;;;2.80;;
6941;SDS011;3510;43.200;27.920;2023-08-01T07:41:16;3.10;;;3.00;;
6941;SDS011;3510;43.200;27.920;2023-08-01T07:43:44;3.25;;;3.03;;
6941;SDS011;3510;43.200;27.920;2023-08-01T07:46:12;2.95;;;2.85;;
6941;SDS011;3510;43.200;27.920;2023-08-01T07:48:54;2.70;;;2.60;;
6941;SDS011;3510;43.200;27.920;2023-08-01T07:51:21;5.07;;;4.85;;
6941;SDS011;3510;43.200;27.920;2023-08-01T07:58:40;4.90;;;4.50;;
6941;SDS011;3510;43.200;27.920;2023-08-01T08:01:07;4.97;;;4.20;;
6941;SDS011;3510;43.200;27.920;2023-08-01T08:03:34;4.43;;;4.18;;
6941;SDS011;3510;43.200;27.920;2023-08-01T08:06:04;5.85;;;5.20;;
6941;SDS011;3510;43.200;27.920;2023-08-01T08:08:31;5.03;;;4.72;;
6941;SDS011;3510;43.200;27.920;2023-08-01T08:11:14;5.30;;;4.90;;
6941;SDS011;3510;43.200;27.920;2023-08-01T08:13:41;5.55;;;5.25;;
6941;SDS011;3510;43.200;27.920;2023-08-01T08:16:08;5.78;;;5.03;;
6941;SDS011;3510;43.200;27.920;2023-08-01T08:18:35;5.10;;;4.80;;
6941;SDS011;3510;43.200;27.920;2023-08-01T08:21:03;6.22;;;5.00;;
6941;SDS011;3510;43.200;27.920;2023-08-01T08:23:32;4.75;;;4.45;;
6941;SDS011;3510;43.200;27.920;2023-08-01T08:26:12;4.65;;;4.43;;
6941;SDS011;3510;43.200;27.920;2023-08-01T08:28:44;4.68;;;4.38;;
6941;SDS011;3510;43.200;27.920;2023-08-01T08:31:14;4.43;;;4.20;;
6941;SDS011;3510;43.200;27.920;2023-08-01T08:33:43;4.43;;;4.22;;
6941;SDS011;3510;43.200;27.920;2023-08-01T08:36:11;5.45;;;3.72;;
6941;SDS011;3510;43.200;27.920;2023-08-01T08:38:38;6.05;;;3.78;;
6941;SDS011;3510;43.200;27.920;2023-08-01T08:41:06;4.35;;;4.05;;
6941;SDS011;3510;43.200;27.920;2023-08-01T08:43:36;3.85;;;3.60;;
6941;SDS011;3510;43.200;27.920;2023-08-01T08:46:04;5.53;;;3.90;;
6941;SDS011;3510;43.200;27.920;2023-08-01T08:48:31;6.50;;;3.60;;
6941;SDS011;3510;43.200;27.920;2023-08-01T08:51:00;4.28;;;3.55;;
6941;SDS011;3510;43.200;27.920;2023-08-01T08:56:13;4.57;;;4.18;;
6941;SDS011;3510;43.200;27.920;2023-08-01T08:58:40;6.88;;;4.95;;
6941;SDS011;3510;43.200;27.920;2023-08-01T09:01:21;5.20;;;4.47;;
6941;SDS011;3510;43.200;27.920;2023-08-01T09:03:49;5.43;;;4.85;;
6941;SDS011;3510;43.200;27.920;2023-08-01T09:06:16;5.88;;;5.30;;
6941;SDS011;3510;43.200;27.920;2023-08-01T09:08:47;5.57;;;5.28;;
6941;SDS011;3510;43.200;27.920;2023-08-01T09:11:17;7.85;;;5.65;;
6941;SDS011;3510;43.200;27.920;2023-08-01T09:13:58;13.80;;;6.15;;
6941;SDS011;3510;43.200;27.920;2023-08-01T09:16:25;6.10;;;5.38;;
6941;SDS011;3510;43.200;27.920;2023-08-01T09:19:06;5.18;;;4.88;;
6941;SDS011;3510;43.200;27.920;2023-08-01T09:21:34;4.85;;;4.55;;
6941;SDS011;3510;43.200;27.920;2023-08-01T09:30:46;4.35;;;3.85;;
6941;SDS011;3510;43.200;27.920;2023-08-01T09:33:36;4.57;;;3.85;;
6941;SDS011;3510;43.200;27.920;2023-08-01T09:36:05;3.67;;;3.47;;
6941;SDS011;3510;43.200;27.920;2023-08-01T09:38:33;3.40;;;3.20;;
6941;SDS011;3510;43.200;27.920;2023-08-01T09:41:16;3.42;;;3.05;;
6941;SDS011;3510;43.200;27.920;2023-08-01T09:43:57;3.10;;;3.00;;
6941;SDS011;3510;43.200;27.920;2023-08-01T09:49:35;3.10;;;2.90;;
6941;SDS011;3510;43.200;27.920;2023-08-01T09:52:13;3.08;;;2.97;;
6941;SDS011;3510;43.200;27.920;2023-08-01T09:54:40;5.70;;;3.72;;
6941;SDS011;3510;43.200;27.920;2023-08-01T09:57:06;6.60;;;3.58;;
6941;SDS011;3510;43.200;27.920;2023-08-01T09:59:34;4.55;;;3.13;;
6941;SDS011;3510;43.200;27.920;2023-08-01T10:02:02;3.47;;;3.25;;
6941;SDS011;3510;43.200;27.920;2023-08-01T10:04:49;3.50;;;3.30;;
6941;SDS011;3510;43.200;27.920;2023-08-01T10:07:20;10.98;;;3.90;;
6941;SDS011;3510;43.200;27.920;2023-08-01T10:09:51;7.30;;;3.50;;
6941;SDS011;3510;43.200;27.920;2023-08-01T10:12:20;4.63;;;3.42;;
6941;SDS011;3510;43.200;27.920;2023-08-01T10:14:49;2.97;;;2.78;;
6941;SDS011;3510;43.200;27.920;2023-08-01T10:17:16;3.63;;;3.22;;
6941;SDS011;3510;43.200;27.920;2023-08-01T10:19:44;5.88;;;3.00;;
6941;SDS011;3510;43.200;27.920;2023-08-01T10:25:23;3.30;;;3.00;;
6941;SDS011;3510;43.200;27.920;2023-08-01T10:27:59;3.25;;;3.05;;
6941;SDS011;3510;43.200;27.920;2023-08-01T10:30:40;3.30;;;3.10;;
6941;SDS011;3510;43.200;27.920;2023-08-01T10:33:07;3.72;;;3.40;;
6941;SDS011;3510;43.200;27.920;2023-08-01T10:35:38;5.88;;;2.95;;
6941;SDS011;3510;43.200;27.920;2023-08-01T10:38:06;2.90;;;2.80;;
6941;SDS011;3510;43.200;27.920;2023-08-01T10:40:49;3.47;;;3.28;;
6941;SDS011;3510;43.200;27.920;2023-08-01T10:43:29;8.05;;;3.70;;
6941;SDS011;3510;43.200;27.920;2023-08-01T10:46:03;3.60;;;3.30;;
6941;SDS011;3510;43.200;27.920;2023-08-01T10:48:30;5.47;;;2.90;;
6941;SDS011;3510;43.200;27.920;2023-08-01T10:50:57;3.10;;;3.00;;
6941;SDS011;3510;43.200;27.920;2023-08-01T10:53:24;6.63;;;3.33;;
6941;SDS011;3510;43.200;27.920;2023-08-01T10:59:05;5.70;;;3.10;;
6941;SDS011;3510;43.200;27.920;2023-08-01T11:01:42;4.20;;;3.15;;
6941;SDS011;3510;43.200;27.920;2023-08-01T11:04:14;3.80;;;3.50;;
6941;SDS011;3510;43.200;27.920;2023-08-01T11:06:44;3.80;;;3.60;;
6941;SDS011;3510;43.200;27.920;2023-08-01T11:09:15;3.47;;;3.10;;
6941;SDS011;3510;43.200;27.920;2023-08-01T11:11:45;8.00;;;3.42;;
6941;SDS011;3510;43.200;27.920;2023-08-01T11:14:14;3.75;;;3.47;;
6941;SDS011;3510;43.200;27.920;2023-08-01T11:16:41;3.42;;;3.13;;
6941;SDS011;3510;43.200;27.920;2023-08-01T11:19:17;3.65;;;3.25;;
6941;SDS011;3510;43.200;27.920;2023-08-01T11:21:45;4.13;;;3.05;;
6941;SDS011;3510;43.200;27.920;2023-08-01T11:24:12;6.53;;;2.90;;
6941;SDS011;3510;43.200;27.920;2023-08-01T11:26:40;3.47;;;3.28;;
6941;SDS011;3510;43.200;27.920;2023-08-01T11:29:10;7.20;;;3.55;;
6941;SDS011;3510;43.200;27.920;2023-08-01T11:31:37;3.70;;;3.40;;
6941;SDS011;3510;43.200;27.920;2023-08-01T11:34:04;3.40;;;3.10;;
6941;SDS011;3510;43.200;27.920;2023-08-01T11:36:33;3.13;;;2.97;;
6941;SDS011;3510;43.200;27.920;2023-08-01T11:39:00;4.57;;;3.50;;
6941;SDS011;3510;43.200;27.920;2023-08-01T11:41:27;5.45;;;3.40;;
6941;SDS011;3510;43.200;27.920;2023-08-01T11:43:55;3.50;;;3.20;;
6941;SDS011;3510;43.200;27.920;2023-08-01T11:46:31;3.75;;;3.55;;
6941;SDS011;3510;43.200;27.920;2023-08-01T11:48:58;4.97;;;3.35;;
6941;SDS011;3510;43.200;27.920;2023-08-01T11:51:26;3.25;;;3.03;;
6941;SDS011;3510;43.200;27.920;2023-08-01T11:54:01;3.50;;;2.92;;
6941;SDS011;3510;43.200;27.920;2023-08-01T11:56:29;3.70;;;3.40;;
6941;SDS011;3510;43.200;27.920;2023-08-01T11:58:56;2.80;;;2.70;;
6941;SDS011;3510;43.200;27.920;2023-08-01T12:01:23;3.65;;;3.40;;
6941;SDS011;3510;43.200;27.920;2023-08-01T12:03:52;3.45;;;3.15;;
6941;SDS011;3510;43.200;27.920;2023-08-01T12:06:21;3.83;;;2.95;;
6941;SDS011;3510;43.200;27.920;2023-08-01T12:08:50;3.13;;;2.92;;
6941;SDS011;3510;43.200;27.920;2023-08-01T12:11:20;3.42;;;3.20;;
6941;SDS011;3510;43.200;27.920;2023-08-01T12:13:47;7.05;;;3.83;;
6941;SDS011;3510;43.200;27.920;2023-08-01T12:16:16;3.35;;;2.95;;
6941;SDS011;3510;43.200;27.920;2023-08-01T12:18:45;3.50;;;3.10;;
6941;SDS011;3510;43.200;27.920;2023-08-01T12:21:13;4.35;;;3.28;;
6941;SDS011;3510;43.200;27.920;2023-08-01T12:23:40;4.00;;;3.67;;
6941;SDS011;3510;43.200;27.920;2023-08-01T12:26:07;3.22;;;3.00;;
6941;SDS011;3510;43.200;27.920;2023-08-01T12:28:34;7.63;;;3.45;;
6941;SDS011;3510;43.200;27.920;2023-08-01T12:31:00;4.82;;;3.20;;
6941;SDS011;3510;43.200;27.920;2023-08-01T12:33:28;7.72;;;3.17;;
6941;SDS011;3510;43.200;27.920;2023-08-01T12:35:55;5.57;;;3.38;;
6941;SDS011;3510;43.200;27.920;2023-08-01T12:38:23;4.03;;;2.90;;
6941;SDS011;3510;43.200;27.920;2023-08-01T12:40:49;4.57;;;3.00;;
6941;SDS011;3510;43.200;27.920;2023-08-01T12:43:16;3.28;;;3.05;;
6941;SDS011;3510;43.200;27.920;2023-08-01T12:45:43;6.43;;;2.78;;
6941;SDS011;3510;43.200;27.920;2023-08-01T12:48:10;4.40;;;3.03;;
6941;SDS011;3510;43.200;27.920;2023-08-01T12:50:36;3.28;;;3.08;;
6941;SDS011;3510;43.200;27.920;2023-08-01T12:53:03;2.45;;;2.33;;
6941;SDS011;3510;43.200;27.920;2023-08-01T12:55:33;5.35;;;2.95;;
6941;SDS011;3510;43.200;27.920;2023-08-01T12:58:07;3.20;;;2.60;;
6941;SDS011;3510;43.200;27.920;2023-08-01T13:00:34;2.78;;;2.58;;
6941;SDS011;3510;43.200;27.920;2023-08-01T13:03:01;2.60;;;2.50;;
6941;SDS011;3510;43.200;27.920;2023-08-01T13:05:27;2.58;;;2.47;;
6941;SDS011;3510;43.200;27.920;2023-08-01T13:07:54;2.67;;;2.42;;
6941;SDS011;3510;43.200;27.920;2023-08-01T13:10:21;2.42;;;2.20;;
6941;SDS011;3510;43.200;27.920;2023-08-01T13:12:48;3.22;;;2.53;;
6941;SDS011;3510;43.200;27.920;2023-08-01T13:15:15;3.97;;;2.70;;
6941;SDS011;3510;43.200;27.920;2023-08-01T13:17:42;2.78;;;2.50;;
6941;SDS011;3510;43.200;27.920;2023-08-01T13:20:10;3.25;;;3.00;;
6941;SDS011;3510;43.200;27.920;2023-08-01T13:22:36;6.38;;;2.47;;
6941;SDS011;3510;43.200;27.920;2023-08-01T13:25:03;2.72;;;2.53;;
6941;SDS011;3510;43.200;27.920;2023-08-01T13:27:31;3.95;;;2.85;;
6941;SDS011;3510;43.200;27.920;2023-08-01T13:30:01;5.72;;;2.50;;
6941;SDS011;3510;43.200;27.920;2023-08-01T13:32:28;3.17;;;2.80;;
6941;SDS011;3510;43.200;27.920;2023-08-01T13:34:55;4.70;;;4.28;;
6941;SDS011;3510;43.200;27.920;2023-08-01T13:39:56;2.85;;;2.65;;
6941;SDS011;3510;43.200;27.920;2023-08-01T13:42:23;4.13;;;2.65;;
6941;SDS011;3510;43.200;27.920;2023-08-01T13:44:50;3.70;;;2.60;;
6941;SDS011;3510;43.200;27.920;2023-08-01T13:49:53;3.47;;;2.63;;
6941;SDS011;3510;43.200;27.920;2023-08-01T13:52:20;2.67;;;2.50;;
6941;SDS011;3510;43.200;27.920;2023-08-01T13:54:47;5.50;;;2.65;;
6941;SDS011;3510;43.200;27.920;2023-08-01T13:57:14;2.60;;;2.40;;
6941;SDS011;3510;43.200;27.920;2023-08-01T14:02:16;6.68;;;2.78;;
6941;SDS011;3510;43.200;27.920;2023-08-01T14:04:43;5.25;;;3.17;;
6941;SDS011;3510;43.200;27.920;2023-08-01T14:07:11;2.72;;;2.53;;
6941;SDS011;3510;43.200;27.920;2023-08-01T14:09:37;4.75;;;3.40;;
6941;SDS011;3510;43.200;27.920;2023-08-01T14:12:04;3.92;;;2.70;;
6941;SDS011;3510;43.200;27.920;2023-08-01T14:14:32;5.53;;;3.10;;
6941;SDS011;3510;43.200;27.920;2023-08-01T14:16:58;2.90;;;2.80;;
6941;SDS011;3510;43.200;27.920;2023-08-01T14:19:25;6.72;;;2.63;;
6941;SDS011;3510;43.200;27.920;2023-08-01T14:21:55;2.50;;;2.38;;
6941;SDS011;3510;43.200;27.920;2023-08-01T14:24:23;4.03;;;2.95;;
6941;SDS011;3510;43.200;27.920;2023-08-01T14:26:50;3.00;;;2.85;;
6941;SDS011;3510;43.200;27.920;2023-08-01T14:29:17;4.60;;;2.85;;
6941;SDS011;3510;43.200;27.920;2023-08-01T14:31:47;4.43;;;2.97;;
6941;SDS011;3510;43.200;27.920;2023-08-01T14:34:14;6.90;;;3.75;;
6941;SDS011;3510;43.200;27.920;2023-08-01T14:36:40;4.80;;;3.10;;
6941;SDS011;3510;43.200;27.920;2023-08-01T14:39:07;2.92;;;2.78;;
6941;SDS011;3510;43.200;27.920;2023-08-01T14:41:35;3.08;;;2.70;;
6941;SDS011;3510;43.200;27.920;2023-08-01T14:44:02;2.83;;;2.70;;
6941;SDS011;3510;43.200;27.920;2023-08-01T14:46:28;4.18;;;2.80;;
6941;SDS011;3510;43.200;27.920;2023-08-01T14:48:55;3.08;;;2.80;;
6941;SDS011;3510;43.200;27.920;2023-08-01T14:51:22;4.93;;;2.85;;
6941;SDS011;3510;43.200;27.920;2023-08-01T14:53:49;3.70;;;3.35;;
6941;SDS011;3510;43.200;27.920;2023-08-01T14:56:15;3.17;;;2.97;;
6941;SDS011;3510;43.200;27.920;2023-08-01T14:58:43;2.88;;;2.58;;
6941;SDS011;3510;43.200;27.920;2023-08-01T15:01:11;9.13;;;3.28;;
6941;SDS011;3510;43.200;27.920;2023-08-01T15:03:39;3.30;;;3.10;;
6941;SDS011;3510;43.200;27.920;2023-08-01T15:06:05;2.58;;;2.38;;
6941;SDS011;3510;43.200;27.920;2023-08-01T15:08:33;6.82;;;3.40;;
6941;SDS011;3510;43.200;27.920;2023-08-01T15:11:02;6.22;;;2.97;;
6941;SDS011;3510;43.200;27.920;2023-08-01T15:13:30;3.42;;;3.13;;
6941;SDS011;3510;43.200;27.920;2023-08-01T15:15:58;8.80;;;3.60;;
6941;SDS011;3510;43.200;27.920;2023-08-01T15:18:25;3.50;;;2.97;;
6941;SDS011;3510;43.200;27.920;2023-08-01T15:20:51;4.75;;;2.90;;
6941;SDS011;3510;43.200;27.920;2023-08-01T15:23:19;3.72;;;3.42;;
6941;SDS011;3510;43.200;27.920;2023-08-01T15:25:53;6.57;;;3.78;;
6941;SDS011;3510;43.200;27.920;2023-08-01T15:28:21;3.40;;;2.50;;
6941;SDS011;3510;43.200;27.920;2023-08-01T15:30:48;12.63;;;3.63;;
6941;SDS011;3510;43.200;27.920;2023-08-01T15:33:16;5.40;;;3.53;;
6941;SDS011;3510;43.200;27.920;2023-08-01T15:35:43;6.03;;;3.90;;
6941;SDS011;3510;43.200;27.920;2023-08-01T15:38:10;3.63;;;3.28;;
6941;SDS011;3510;43.200;27.920;2023-08-01T15:40:36;6.30;;;3.97;;
6941;SDS011;3510;43.200;27.920;2023-08-01T15:43:03;3.60;;;3.30;;
6941;SDS011;3510;43.200;27.920;2023-08-01T15:45:30;4.13;;;3.63;;
6941;SDS011;3510;43.200;27.920;2023-08-01T15:47:56;3.83;;;3.30;;
6941;SDS011;3510;43.200;27.920;2023-08-01T15:50:25;7.70;;;3.15;;
6941;SDS011;3510;43.200;27.920;2023-08-01T15:52:51;5.40;;;3.92;;
6941;SDS011;3510;43.200;27.920;2023-08-01T15:55:18;10.93;;;4.18;;
6941;SDS011;3510;43.200;27.920;2023-08-01T15:57:45;6.05;;;3.60;;
6941;SDS011;3510;43.200;27.920;2023-08-01T16:00:11;6.82;;;3.83;;
6941;SDS011;3510;43.200;27.920;2023-08-01T16:02:38;4.13;;;3.67;;
6941;SDS011;3510;43.200;27.920;2023-08-01T16:05:05;7.10;;;3.70;;
6941;SDS011;3510;43.200;27.920;2023-08-01T16:07:33;3.20;;;3.00;;
6941;SDS011;3510;43.200;27.920;2023-08-01T16:10:00;7.85;;;4.75;;
6941;SDS011;3510;43.200;27.920;2023-08-01T16:12:27;7.18;;;6.57;;
6941;SDS011;3510;43.200;27.920;2023-08-01T16:14:53;6.78;;;4.22;;
6941;SDS011;3510;43.200;27.920;2023-08-01T16:17:20;8.32;;;5.35;;
6941;SDS011;3510;43.200;27.920;2023-08-01T16:19:47;3.03;;;2.72;;
6941;SDS011;3510;43.200;27.920;2023-08-01T16:22:14;6.80;;;3.95;;
6941;SDS011;3510;43.200;27.920;2023-08-01T16:24:44;8.38;;;4.50;;
6941;SDS011;3510;43.200;27.920;2023-08-01T16:27:12;5.85;;;3.25;;
6941;SDS011;3510;43.200;27.920;2023-08-01T16:29:38;5.22;;;3.75;;
6941;SDS011;3510;43.200;27.920;2023-08-01T16:32:05;3.63;;;3.10;;
6941;SDS011;3510;43.200;27.920;2023-08-01T16:34:33;5.75;;;3.95;;
6941;SDS011;3510;43.200;27.920;2023-08-01T16:36:59;3.28;;;2.97;;
6941;SDS011;3510;43.200;27.920;2023-08-01T16:39:40;7.80;;;3.10;;
6941;SDS011;3510;43.200;27.920;2023-08-01T16:42:08;8.50;;;4.07;;
6941;SDS011;3510;43.200;27.920;2023-08-01T16:44:35;3.67;;;3.38;;
6941;SDS011;3510;43.200;27.920;2023-08-01T16:47:02;3.40;;;3.20;;
6941;SDS011;3510;43.200;27.920;2023-08-01T16:49:28;6.13;;;4.80;;
6941;SDS011;3510;43.200;27.920;2023-08-01T16:51:55;4.53;;;4.00;;
6941;SDS011;3510;43.200;27.920;2023-08-01T16:54:22;3.97;;;2.92;;
6941;SDS011;3510;43.200;27.920;2023-08-01T16:56:49;4.07;;;3.40;;
6941;SDS011;3510;43.200;27.920;2023-08-01T16:59:17;2.92;;;2.83;;
6941;SDS011;3510;43.200;27.920;2023-08-01T17:01:43;6.60;;;3.50;;
6941;SDS011;3510;43.200;27.920;2023-08-01T17:04:10;3.80;;;3.10;;